sensor_id;sensor_type;location;lat;lon;timestamp;P1;durP1;ratioP1;P2;durP2;ratioP2
77018;SDS011;66044;53.142;17.962;2023-06-22T00:00:56;11.90;;;7.60;;
77018;SDS011;66044;53.142;17.962;2023-06-22T00:03:31;11.70;;;7.70;;
77018;SDS011;66044;53.142;17.962;2023-06-22T00:05:57;14.30;;;7.90;;
77018;SDS011;66044;53.142;17.962;2023-06-22T00:08:24;10.30;;;6.80;;
77018;SDS011;66044;53.142;17.962;2023-06-22T00:10:50;14.80;;;9.80;;
77018;SDS011;66044;53.142;17.962;2023-06-22T00:13:17;16.90;;;12.30;;
77018;SDS011;66044;53.142;17.962;2023-06-22T00:15:44;19.90;;;16.70;;
77018;SDS011;66044;53.142;17.962;2023-06-22T00:18:10;25.60;;;20.50;;
77018;SDS011;66044;53.142;17.962;2023-06-22T00:20:39;28.90;;;24.30;;
77018;SDS011;66044;53.142;17.962;2023-06-22T00:23:06;30.80;;;26.10;;
77018;SDS011;66044;53.142;17.962;2023-06-22T00:25:38;29.50;;;24.90;;
77018;SDS011;66044;53.142;17.962;2023-06-22T00:28:08;32.90;;;27.50;;
77018;SDS011;66044;53.142;17.962;2023-06-22T00:30:34;28.30;;;23.30;;
77018;SDS011;66044;53.142;17.962;2023-06-22T00:33:01;27.20;;;22.60;;
77018;SDS011;66044;53.142;17.962;2023-06-22T00:35:28;25.70;;;20.00;;
77018;SDS011;66044;53.142;17.962;2023-06-22T00:37:58;24.10;;;17.80;;
77018;SDS011;66044;53.142;17.962;2023-06-22T00:40:30;20.50;;;15.80;;
77018;SDS011;66044;53.142;17.962;2023-06-22T00:42:58;17.30;;;12.70;;
77018;SDS011;66044;53.142;17.962;2023-06-22T00:45:25;16.40;;;11.50;;
77018;SDS011;66044;53.142;17.962;2023-06-22T00:47:53;15.80;;;10.70;;
77018;SDS011;66044;53.142;17.962;2023-06-22T00:50:22;13.70;;;9.70;;
77018;SDS011;66044;53.142;17.962;2023-06-22T00:52:57;15.50;;;9.40;;
77018;SDS011;66044;53.142;17.962;2023-06-22T00:55:26;15.30;;;8.60;;
77018;SDS011;66044;53.142;17.962;2023-06-22T00:57:53;13.50;;;8.40;;
77018;SDS011;66044;53.142;17.962;2023-06-22T01:00:23;10.30;;;7.80;;
77018;SDS011;66044;53.142;17.962;2023-06-22T01:02:52;12.30;;;7.80;;
77018;SDS011;66044;53.142;17.962;2023-06-22T01:05:20;10.40;;;7.20;;
77018;SDS011;66044;53.142;17.962;2023-06-22T01:12:55;11.90;;;8.00;;
77018;SDS011;66044;53.142;17.962;2023-06-22T01:15:29;13.40;;;7.40;;
77018;SDS011;66044;53.142;17.962;2023-06-22T01:18:01;11.20;;;7.50;;
77018;SDS011;66044;53.142;17.962;2023-06-22T01:20:30;11.00;;;6.80;;
77018;SDS011;66044;53.142;17.962;2023-06-22T01:29:11;8.90;;;5.00;;
77018;SDS011;66044;53.142;17.962;2023-06-22T01:31:40;10.60;;;6.10;;
77018;SDS011;66044;53.142;17.962;2023-06-22T01:34:09;9.30;;;4.90;;
77018;SDS011;66044;53.142;17.962;2023-06-22T01:36:37;9.00;;;4.90;;
77018;SDS011;66044;53.142;17.962;2023-06-22T01:39:05;8.80;;;4.90;;
77018;SDS011;66044;53.142;17.962;2023-06-22T01:41:33;8.80;;;5.10;;
77018;SDS011;66044;53.142;17.962;2023-06-22T01:44:02;7.80;;;4.40;;
77018;SDS011;66044;53.142;17.962;2023-06-22T01:46:34;8.40;;;4.60;;
77018;SDS011;66044;53.142;17.962;2023-06-22T01:49:04;9.20;;;4.90;;
77018;SDS011;66044;53.142;17.962;2023-06-22T01:51:32;9.50;;;4.30;;
77018;SDS011;66044;53.142;17.962;2023-06-22T01:53:59;9.00;;;4.50;;
77018;SDS011;66044;53.142;17.962;2023-06-22T01:56:27;7.70;;;4.00;;
77018;SDS011;66044;53.142;17.962;2023-06-22T02:01:37;7.70;;;4.20;;
77018;SDS011;66044;53.142;17.962;2023-06-22T02:04:34;7.80;;;4.00;;
77018;SDS011;66044;53.142;17.962;2023-06-22T02:07:08;8.60;;;4.10;;
77018;SDS011;66044;53.142;17.962;2023-06-22T02:09:38;8.00;;;4.00;;
77018;SDS011;66044;53.142;17.962;2023-06-22T02:12:08;8.80;;;4.20;;
77018;SDS011;66044;53.142;17.962;2023-06-22T02:14:37;8.80;;;4.60;;
77018;SDS011;66044;53.142;17.962;2023-06-22T02:17:08;8.50;;;5.00;;
77018;SDS011;66044;53.142;17.962;2023-06-22T02:19:38;8.70;;;4.70;;
77018;SDS011;66044;53.142;17.962;2023-06-22T02:22:07;8.50;;;4.90;;
77018;SDS011;66044;53.142;17.962;2023-06-22T02:24:34;8.90;;;5.20;;
77018;SDS011;66044;53.142;17.962;2023-06-22T02:27:01;9.20;;;5.40;;
77018;SDS011;66044;53.142;17.962;2023-06-22T02:29:28;9.20;;;5.30;;
77018;SDS011;66044;53.142;17.962;2023-06-22T02:31:55;8.80;;;5.80;;
77018;SDS011;66044;53.142;17.962;2023-06-22T02:34:21;8.50;;;5.10;;
77018;SDS011;66044;53.142;17.962;2023-06-22T02:36:48;9.00;;;5.10;;
77018;SDS011;66044;53.142;17.962;2023-06-22T02:39:22;9.80;;;5.40;;
77018;SDS011;66044;53.142;17.962;2023-06-22T02:41:50;9.40;;;4.60;;
77018;SDS011;66044;53.142;17.962;2023-06-22T02:44:18;8.20;;;4.70;;
77018;SDS011;66044;53.142;17.962;2023-06-22T02:46:45;9.50;;;4.90;;
77018;SDS011;66044;53.142;17.962;2023-06-22T02:49:12;9.10;;;4.30;;
77018;SDS011;66044;53.142;17.962;2023-06-22T02:51:39;8.00;;;4.60;;
77018;SDS011;66044;53.142;17.962;2023-06-22T02:54:08;8.50;;;4.20;;
77018;SDS011;66044;53.142;17.962;2023-06-22T02:56:34;6.50;;;3.40;;
77018;SDS011;66044;53.142;17.962;2023-06-22T02:59:02;7.60;;;3.50;;
77018;SDS011;66044;53.142;17.962;2023-06-22T03:01:29;7.80;;;3.40;;
77018;SDS011;66044;53.142;17.962;2023-06-22T03:03:56;7.40;;;3.30;;
77018;SDS011;66044;53.142;17.962;2023-06-22T03:06:23;6.20;;;3.20;;
77018;SDS011;66044;53.142;17.962;2023-06-22T03:08:58;8.50;;;3.40;;
77018;SDS011;66044;53.142;17.962;2023-06-22T03:11:26;7.30;;;3.30;;
77018;SDS011;66044;53.142;17.962;2023-06-22T03:13:53;6.60;;;3.10;;
77018;SDS011;66044;53.142;17.962;2023-06-22T03:16:19;6.70;;;3.00;;
77018;SDS011;66044;53.142;17.962;2023-06-22T03:18:46;8.10;;;3.60;;
77018;SDS011;66044;53.142;17.962;2023-06-22T03:21:12;7.20;;;3.50;;
77018;SDS011;66044;53.142;17.962;2023-06-22T03:23:41;7.10;;;3.40;;
77018;SDS011;66044;53.142;17.962;2023-06-22T03:26:08;8.20;;;3.60;;
77018;SDS011;66044;53.142;17.962;2023-06-22T03:28:36;9.10;;;3.40;;
77018;SDS011;66044;53.142;17.962;2023-06-22T03:31:03;8.10;;;3.40;;
77018;SDS011;66044;53.142;17.962;2023-06-22T03:33:32;7.80;;;3.90;;
77018;SDS011;66044;53.142;17.962;2023-06-22T03:35:59;7.00;;;3.30;;
77018;SDS011;66044;53.142;17.962;2023-06-22T03:38:25;8.80;;;4.20;;
77018;SDS011;66044;53.142;17.962;2023-06-22T03:40:52;8.50;;;3.60;;
77018;SDS011;66044;53.142;17.962;2023-06-22T03:43:18;7.00;;;3.40;;
77018;SDS011;66044;53.142;17.962;2023-06-22T03:45:45;8.30;;;3.70;;
77018;SDS011;66044;53.142;17.962;2023-06-22T03:48:11;8.10;;;3.20;;
77018;SDS011;66044;53.142;17.962;2023-06-22T03:50:38;6.80;;;2.70;;
77018;SDS011;66044;53.142;17.962;2023-06-22T03:53:05;7.40;;;3.20;;
77018;SDS011;66044;53.142;17.962;2023-06-22T03:55:31;7.20;;;3.10;;
77018;SDS011;66044;53.142;17.962;2023-06-22T03:57:57;7.10;;;3.10;;
77018;SDS011;66044;53.142;17.962;2023-06-22T04:00:24;7.80;;;3.30;;
77018;SDS011;66044;53.142;17.962;2023-06-22T04:02:51;7.60;;;3.10;;
77018;SDS011;66044;53.142;17.962;2023-06-22T04:05:17;7.50;;;3.00;;
77018;SDS011;66044;53.142;17.962;2023-06-22T04:07:45;7.90;;;2.80;;
77018;SDS011;66044;53.142;17.962;2023-06-22T04:10:11;8.20;;;2.80;;
77018;SDS011;66044;53.142;17.962;2023-06-22T04:12:38;6.00;;;2.60;;
77018;SDS011;66044;53.142;17.962;2023-06-22T04:15:05;6.40;;;2.70;;
77018;SDS011;66044;53.142;17.962;2023-06-22T04:17:32;7.80;;;2.70;;
77018;SDS011;66044;53.142;17.962;2023-06-22T04:19:58;8.80;;;2.90;;
77018;SDS011;66044;53.142;17.962;2023-06-22T04:22:25;7.40;;;2.80;;
77018;SDS011;66044;53.142;17.962;2023-06-22T04:24:51;7.50;;;2.50;;
77018;SDS011;66044;53.142;17.962;2023-06-22T04:27:19;7.40;;;2.60;;
77018;SDS011;66044;53.142;17.962;2023-06-22T04:29:45;6.80;;;2.60;;
77018;SDS011;66044;53.142;17.962;2023-06-22T04:32:15;7.40;;;2.70;;
77018;SDS011;66044;53.142;17.962;2023-06-22T04:34:42;7.10;;;2.50;;
77018;SDS011;66044;53.142;17.962;2023-06-22T04:37:09;5.80;;;2.20;;
77018;SDS011;66044;53.142;17.962;2023-06-22T04:39:42;5.90;;;2.00;;
77018;SDS011;66044;53.142;17.962;2023-06-22T04:42:09;7.10;;;2.70;;
77018;SDS011;66044;53.142;17.962;2023-06-22T04:44:36;6.00;;;2.40;;
77018;SDS011;66044;53.142;17.962;2023-06-22T04:47:02;7.00;;;1.80;;
77018;SDS011;66044;53.142;17.962;2023-06-22T04:49:30;8.50;;;2.30;;
77018;SDS011;66044;53.142;17.962;2023-06-22T04:52:02;6.10;;;2.00;;
77018;SDS011;66044;53.142;17.962;2023-06-22T04:54:30;6.60;;;2.00;;
77018;SDS011;66044;53.142;17.962;2023-06-22T04:57:00;5.90;;;2.10;;
77018;SDS011;66044;53.142;17.962;2023-06-22T04:59:28;5.90;;;2.00;;
77018;SDS011;66044;53.142;17.962;2023-06-22T05:01:56;7.90;;;2.00;;
77018;SDS011;66044;53.142;17.962;2023-06-22T05:04:27;18.70;;;2.20;;
77018;SDS011;66044;53.142;17.962;2023-06-22T05:06:54;6.80;;;1.80;;
77018;SDS011;66044;53.142;17.962;2023-06-22T05:09:21;7.10;;;2.10;;
77018;SDS011;66044;53.142;17.962;2023-06-22T05:11:48;7.50;;;1.60;;
77018;SDS011;66044;53.142;17.962;2023-06-22T05:14:14;5.90;;;2.00;;
77018;SDS011;66044;53.142;17.962;2023-06-22T05:16:41;6.60;;;1.80;;
77018;SDS011;66044;53.142;17.962;2023-06-22T05:19:09;5.80;;;1.80;;
77018;SDS011;66044;53.142;17.962;2023-06-22T05:21:36;5.40;;;1.70;;
77018;SDS011;66044;53.142;17.962;2023-06-22T05:24:03;5.60;;;1.60;;
77018;SDS011;66044;53.142;17.962;2023-06-22T05:26:30;6.60;;;1.80;;
77018;SDS011;66044;53.142;17.962;2023-06-22T05:28:59;6.40;;;1.70;;
77018;SDS011;66044;53.142;17.962;2023-06-22T05:31:27;6.30;;;2.00;;
77018;SDS011;66044;53.142;17.962;2023-06-22T05:33:54;5.60;;;1.80;;
77018;SDS011;66044;53.142;17.962;2023-06-22T05:36:21;6.90;;;1.50;;
77018;SDS011;66044;53.142;17.962;2023-06-22T05:38:51;5.90;;;1.60;;
77018;SDS011;66044;53.142;17.962;2023-06-22T05:41:19;5.10;;;1.80;;
77018;SDS011;66044;53.142;17.962;2023-06-22T05:43:46;5.30;;;1.60;;
77018;SDS011;66044;53.142;17.962;2023-06-22T05:46:12;5.50;;;1.70;;
77018;SDS011;66044;53.142;17.962;2023-06-22T05:48:39;6.30;;;1.90;;
77018;SDS011;66044;53.142;17.962;2023-06-22T05:51:05;9.90;;;1.80;;
77018;SDS011;66044;53.142;17.962;2023-06-22T05:53:32;5.10;;;1.60;;
77018;SDS011;66044;53.142;17.962;2023-06-22T05:55:58;5.40;;;1.60;;
77018;SDS011;66044;53.142;17.962;2023-06-22T05:58:24;8.60;;;3.40;;
77018;SDS011;66044;53.142;17.962;2023-06-22T06:00:51;16.80;;;9.50;;
77018;SDS011;66044;53.142;17.962;2023-06-22T06:03:17;10.80;;;5.00;;
77018;SDS011;66044;53.142;17.962;2023-06-22T06:05:44;38.90;;;18.80;;
77018;SDS011;66044;53.142;17.962;2023-06-22T06:08:11;21.70;;;11.40;;
77018;SDS011;66044;53.142;17.962;2023-06-22T06:10:38;24.70;;;11.10;;
77018;SDS011;66044;53.142;17.962;2023-06-22T06:13:05;15.50;;;9.60;;
77018;SDS011;66044;53.142;17.962;2023-06-22T06:15:32;8.50;;;4.30;;
77018;SDS011;66044;53.142;17.962;2023-06-22T06:17:59;7.80;;;3.80;;
77018;SDS011;66044;53.142;17.962;2023-06-22T06:20:26;7.50;;;2.60;;
77018;SDS011;66044;53.142;17.962;2023-06-22T06:22:54;7.20;;;2.40;;
77018;SDS011;66044;53.142;17.962;2023-06-22T06:25:20;25.50;;;9.10;;
77018;SDS011;66044;53.142;17.962;2023-06-22T06:27:48;16.40;;;8.60;;
77018;SDS011;66044;53.142;17.962;2023-06-22T06:30:17;14.10;;;9.60;;
77018;SDS011;66044;53.142;17.962;2023-06-22T06:32:46;8.20;;;3.40;;
77018;SDS011;66044;53.142;17.962;2023-06-22T06:35:14;5.10;;;2.20;;
77018;SDS011;66044;53.142;17.962;2023-06-22T06:37:45;6.10;;;2.30;;
77018;SDS011;66044;53.142;17.962;2023-06-22T06:40:13;10.20;;;4.70;;
77018;SDS011;66044;53.142;17.962;2023-06-22T06:42:41;6.60;;;2.30;;
77018;SDS011;66044;53.142;17.962;2023-06-22T06:45:12;5.10;;;1.60;;
77018;SDS011;66044;53.142;17.962;2023-06-22T06:47:41;4.50;;;1.70;;
77018;SDS011;66044;53.142;17.962;2023-06-22T06:50:08;5.90;;;1.60;;
77018;SDS011;66044;53.142;17.962;2023-06-22T06:52:35;4.90;;;1.70;;
77018;SDS011;66044;53.142;17.962;2023-06-22T06:55:02;5.90;;;1.60;;
77018;SDS011;66044;53.142;17.962;2023-06-22T06:57:30;4.50;;;1.40;;
77018;SDS011;66044;53.142;17.962;2023-06-22T06:59:57;5.20;;;1.70;;
77018;SDS011;66044;53.142;17.962;2023-06-22T07:02:24;4.60;;;1.60;;
77018;SDS011;66044;53.142;17.962;2023-06-22T07:04:52;5.20;;;2.00;;
77018;SDS011;66044;53.142;17.962;2023-06-22T07:07:18;4.60;;;1.80;;
77018;SDS011;66044;53.142;17.962;2023-06-22T07:09:45;4.30;;;1.60;;
77018;SDS011;66044;53.142;17.962;2023-06-22T07:12:11;4.90;;;1.90;;
77018;SDS011;66044;53.142;17.962;2023-06-22T07:14:38;4.80;;;1.50;;
77018;SDS011;66044;53.142;17.962;2023-06-22T07:17:04;3.90;;;1.50;;
77018;SDS011;66044;53.142;17.962;2023-06-22T07:19:32;4.20;;;1.50;;
77018;SDS011;66044;53.142;17.962;2023-06-22T07:21:59;6.20;;;1.80;;
77018;SDS011;66044;53.142;17.962;2023-06-22T07:24:25;5.10;;;1.60;;
77018;SDS011;66044;53.142;17.962;2023-06-22T07:26:52;4.70;;;1.50;;
77018;SDS011;66044;53.142;17.962;2023-06-22T07:29:21;4.90;;;1.50;;
77018;SDS011;66044;53.142;17.962;2023-06-22T07:31:49;4.80;;;1.30;;
77018;SDS011;66044;53.142;17.962;2023-06-22T07:34:17;4.40;;;1.30;;
77018;SDS011;66044;53.142;17.962;2023-06-22T07:36:44;4.40;;;1.30;;
77018;SDS011;66044;53.142;17.962;2023-06-22T07:39:12;4.60;;;1.10;;
77018;SDS011;66044;53.142;17.962;2023-06-22T07:41:39;4.40;;;1.10;;
77018;SDS011;66044;53.142;17.962;2023-06-22T07:44:07;5.40;;;1.10;;
77018;SDS011;66044;53.142;17.962;2023-06-22T07:46:33;4.80;;;1.10;;
77018;SDS011;66044;53.142;17.962;2023-06-22T07:49:00;4.40;;;1.10;;
77018;SDS011;66044;53.142;17.962;2023-06-22T07:51:27;4.30;;;1.20;;
77018;SDS011;66044;53.142;17.962;2023-06-22T07:53:54;3.50;;;0.90;;
77018;SDS011;66044;53.142;17.962;2023-06-22T07:56:20;3.80;;;1.10;;
77018;SDS011;66044;53.142;17.962;2023-06-22T07:58:47;5.40;;;1.00;;
77018;SDS011;66044;53.142;17.962;2023-06-22T08:01:14;6.30;;;1.30;;
77018;SDS011;66044;53.142;17.962;2023-06-22T08:03:41;6.60;;;1.30;;
77018;SDS011;66044;53.142;17.962;2023-06-22T08:06:07;5.10;;;1.10;;
77018;SDS011;66044;53.142;17.962;2023-06-22T08:08:35;5.30;;;1.20;;
77018;SDS011;66044;53.142;17.962;2023-06-22T08:11:02;5.20;;;1.30;;
77018;SDS011;66044;53.142;17.962;2023-06-22T08:13:29;6.10;;;1.30;;
77018;SDS011;66044;53.142;17.962;2023-06-22T08:15:55;4.20;;;1.00;;
77018;SDS011;66044;53.142;17.962;2023-06-22T08:18:22;4.70;;;1.20;;
77018;SDS011;66044;53.142;17.962;2023-06-22T08:20:48;5.30;;;1.20;;
77018;SDS011;66044;53.142;17.962;2023-06-22T08:23:15;6.00;;;1.50;;
77018;SDS011;66044;53.142;17.962;2023-06-22T08:25:43;5.20;;;1.60;;
77018;SDS011;66044;53.142;17.962;2023-06-22T08:28:09;6.30;;;1.60;;
77018;SDS011;66044;53.142;17.962;2023-06-22T08:30:36;4.30;;;1.30;;
77018;SDS011;66044;53.142;17.962;2023-06-22T08:33:03;4.50;;;1.00;;
77018;SDS011;66044;53.142;17.962;2023-06-22T08:35:29;6.40;;;1.90;;
77018;SDS011;66044;53.142;17.962;2023-06-22T08:37:56;7.50;;;1.50;;
77018;SDS011;66044;53.142;17.962;2023-06-22T08:40:23;7.90;;;2.10;;
77018;SDS011;66044;53.142;17.962;2023-06-22T08:42:50;4.90;;;1.30;;
77018;SDS011;66044;53.142;17.962;2023-06-22T08:45:16;5.50;;;1.40;;
77018;SDS011;66044;53.142;17.962;2023-06-22T08:47:43;8.00;;;1.80;;
77018;SDS011;66044;53.142;17.962;2023-06-22T08:50:09;5.80;;;1.60;;
77018;SDS011;66044;53.142;17.962;2023-06-22T08:52:37;4.40;;;1.50;;
77018;SDS011;66044;53.142;17.962;2023-06-22T08:55:07;4.70;;;1.30;;
77018;SDS011;66044;53.142;17.962;2023-06-22T08:57:35;9.00;;;1.60;;
77018;SDS011;66044;53.142;17.962;2023-06-22T09:00:08;4.30;;;1.10;;
77018;SDS011;66044;53.142;17.962;2023-06-22T09:02:43;4.90;;;1.60;;
77018;SDS011;66044;53.142;17.962;2023-06-22T09:05:10;5.60;;;1.60;;
77018;SDS011;66044;53.142;17.962;2023-06-22T09:07:37;4.70;;;1.40;;
77018;SDS011;66044;53.142;17.962;2023-06-22T09:10:04;4.30;;;1.30;;
77018;SDS011;66044;53.142;17.962;2023-06-22T09:12:31;5.70;;;1.60;;
77018;SDS011;66044;53.142;17.962;2023-06-22T09:14:59;5.70;;;1.70;;
77018;SDS011;66044;53.142;17.962;2023-06-22T09:17:26;5.10;;;1.70;;
77018;SDS011;66044;53.142;17.962;2023-06-22T09:19:53;6.00;;;1.50;;
77018;SDS011;66044;53.142;17.962;2023-06-22T09:22:19;5.10;;;1.40;;
77018;SDS011;66044;53.142;17.962;2023-06-22T09:24:46;5.40;;;1.40;;
77018;SDS011;66044;53.142;17.962;2023-06-22T09:27:13;5.90;;;1.60;;
77018;SDS011;66044;53.142;17.962;2023-06-22T09:29:39;6.60;;;1.40;;
77018;SDS011;66044;53.142;17.962;2023-06-22T09:32:06;5.30;;;1.60;;
77018;SDS011;66044;53.142;17.962;2023-06-22T09:34:33;5.70;;;1.60;;
77018;SDS011;66044;53.142;17.962;2023-06-22T09:37:00;5.30;;;1.40;;
77018;SDS011;66044;53.142;17.962;2023-06-22T09:39:29;4.60;;;1.30;;
77018;SDS011;66044;53.142;17.962;2023-06-22T09:41:57;4.60;;;1.30;;
77018;SDS011;66044;53.142;17.962;2023-06-22T09:44:26;6.00;;;1.50;;
77018;SDS011;66044;53.142;17.962;2023-06-22T09:46:52;5.00;;;1.40;;
77018;SDS011;66044;53.142;17.962;2023-06-22T09:49:19;4.70;;;1.30;;
77018;SDS011;66044;53.142;17.962;2023-06-22T09:51:45;4.50;;;1.20;;
77018;SDS011;66044;53.142;17.962;2023-06-22T09:54:12;5.10;;;1.50;;
77018;SDS011;66044;53.142;17.962;2023-06-22T09:56:38;4.10;;;1.20;;
77018;SDS011;66044;53.142;17.962;2023-06-22T09:59:07;5.40;;;1.20;;
77018;SDS011;66044;53.142;17.962;2023-06-22T10:01:33;4.60;;;1.30;;
77018;SDS011;66044;53.142;17.962;2023-06-22T10:04:00;5.10;;;1.20;;
77018;SDS011;66044;53.142;17.962;2023-06-22T10:06:28;4.90;;;1.30;;
77018;SDS011;66044;53.142;17.962;2023-06-22T10:08:55;5.00;;;1.40;;
77018;SDS011;66044;53.142;17.962;2023-06-22T10:11:21;5.70;;;1.40;;
77018;SDS011;66044;53.142;17.962;2023-06-22T10:13:53;6.20;;;1.60;;
77018;SDS011;66044;53.142;17.962;2023-06-22T10:16:19;6.40;;;1.50;;
77018;SDS011;66044;53.142;17.962;2023-06-22T10:18:46;5.20;;;1.50;;
77018;SDS011;66044;53.142;17.962;2023-06-22T10:21:12;5.70;;;1.40;;
77018;SDS011;66044;53.142;17.962;2023-06-22T10:23:38;5.70;;;1.40;;
77018;SDS011;66044;53.142;17.962;2023-06-22T10:26:05;5.30;;;1.30;;
77018;SDS011;66044;53.142;17.962;2023-06-22T10:28:31;5.10;;;1.50;;
77018;SDS011;66044;53.142;17.962;2023-06-22T10:30:58;4.90;;;1.20;;
77018;SDS011;66044;53.142;17.962;2023-06-22T10:33:24;5.70;;;1.50;;
77018;SDS011;66044;53.142;17.962;2023-06-22T10:35:50;6.40;;;1.60;;
77018;SDS011;66044;53.142;17.962;2023-06-22T10:38:17;5.40;;;1.60;;
77018;SDS011;66044;53.142;17.962;2023-06-22T10:40:43;5.10;;;1.50;;
77018;SDS011;66044;53.142;17.962;2023-06-22T10:43:10;5.10;;;1.30;;
77018;SDS011;66044;53.142;17.962;2023-06-22T10:45:36;5.20;;;1.30;;
77018;SDS011;66044;53.142;17.962;2023-06-22T10:48:03;4.70;;;1.40;;
77018;SDS011;66044;53.142;17.962;2023-06-22T10:50:29;4.70;;;1.40;;
77018;SDS011;66044;53.142;17.962;2023-06-22T10:52:56;4.70;;;1.30;;
77018;SDS011;66044;53.142;17.962;2023-06-22T10:55:22;4.40;;;1.20;;
77018;SDS011;66044;53.142;17.962;2023-06-22T10:57:49;4.90;;;1.50;;
77018;SDS011;66044;53.142;17.962;2023-06-22T11:00:16;4.90;;;1.50;;
77018;SDS011;66044;53.142;17.962;2023-06-22T11:02:43;5.20;;;1.50;;
77018;SDS011;66044;53.142;17.962;2023-06-22T11:05:10;4.20;;;1.30;;
77018;SDS011;66044;53.142;17.962;2023-06-22T11:07:37;5.40;;;1.40;;
77018;SDS011;66044;53.142;17.962;2023-06-22T11:10:05;4.70;;;1.30;;
77018;SDS011;66044;53.142;17.962;2023-06-22T11:12:32;5.90;;;1.40;;
77018;SDS011;66044;53.142;17.962;2023-06-22T11:14:58;6.10;;;1.60;;
77018;SDS011;66044;53.142;17.962;2023-06-22T11:17:25;4.90;;;1.30;;
77018;SDS011;66044;53.142;17.962;2023-06-22T11:19:51;4.70;;;1.30;;
77018;SDS011;66044;53.142;17.962;2023-06-22T11:22:18;4.00;;;1.20;;
77018;SDS011;66044;53.142;17.962;2023-06-22T11:24:44;4.90;;;1.60;;
77018;SDS011;66044;53.142;17.962;2023-06-22T11:27:11;5.50;;;1.60;;
77018;SDS011;66044;53.142;17.962;2023-06-22T11:29:37;4.90;;;1.40;;
77018;SDS011;66044;53.142;17.962;2023-06-22T11:32:06;5.00;;;1.30;;
77018;SDS011;66044;53.142;17.962;2023-06-22T11:34:33;4.20;;;1.10;;
77018;SDS011;66044;53.142;17.962;2023-06-22T11:37:01;5.10;;;1.30;;
77018;SDS011;66044;53.142;17.962;2023-06-22T11:39:27;5.50;;;1.50;;
77018;SDS011;66044;53.142;17.962;2023-06-22T11:41:53;4.60;;;1.50;;
77018;SDS011;66044;53.142;17.962;2023-06-22T11:44:20;5.90;;;1.50;;
77018;SDS011;66044;53.142;17.962;2023-06-22T11:46:46;5.00;;;1.10;;
77018;SDS011;66044;53.142;17.962;2023-06-22T11:49:15;5.60;;;1.60;;
77018;SDS011;66044;53.142;17.962;2023-06-22T11:51:41;5.70;;;1.40;;
77018;SDS011;66044;53.142;17.962;2023-06-22T11:54:07;5.70;;;1.40;;
77018;SDS011;66044;53.142;17.962;2023-06-22T11:56:34;4.90;;;1.20;;
77018;SDS011;66044;53.142;17.962;2023-06-22T11:59:00;5.00;;;1.40;;
77018;SDS011;66044;53.142;17.962;2023-06-22T12:01:27;7.30;;;1.50;;
77018;SDS011;66044;53.142;17.962;2023-06-22T12:03:53;5.20;;;1.60;;
77018;SDS011;66044;53.142;17.962;2023-06-22T12:06:20;5.40;;;1.40;;
77018;SDS011;66044;53.142;17.962;2023-06-22T12:08:46;7.10;;;1.30;;
77018;SDS011;66044;53.142;17.962;2023-06-22T12:11:13;4.60;;;1.30;;
77018;SDS011;66044;53.142;17.962;2023-06-22T12:13:39;5.70;;;1.30;;
77018;SDS011;66044;53.142;17.962;2023-06-22T12:16:05;4.60;;;1.10;;
77018;SDS011;66044;53.142;17.962;2023-06-22T12:18:32;4.70;;;1.40;;
77018;SDS011;66044;53.142;17.962;2023-06-22T12:20:59;5.40;;;1.60;;
77018;SDS011;66044;53.142;17.962;2023-06-22T12:23:25;4.60;;;1.30;;
77018;SDS011;66044;53.142;17.962;2023-06-22T12:25:52;5.30;;;1.30;;
77018;SDS011;66044;53.142;17.962;2023-06-22T12:28:18;5.10;;;1.40;;
77018;SDS011;66044;53.142;17.962;2023-06-22T12:30:44;4.00;;;1.10;;
77018;SDS011;66044;53.142;17.962;2023-06-22T12:33:11;5.10;;;1.40;;
77018;SDS011;66044;53.142;17.962;2023-06-22T12:35:37;5.00;;;1.50;;
77018;SDS011;66044;53.142;17.962;2023-06-22T12:38:04;6.10;;;1.30;;
77018;SDS011;66044;53.142;17.962;2023-06-22T12:40:32;5.40;;;1.20;;
77018;SDS011;66044;53.142;17.962;2023-06-22T12:42:59;4.80;;;1.10;;
77018;SDS011;66044;53.142;17.962;2023-06-22T12:45:26;5.00;;;1.40;;
77018;SDS011;66044;53.142;17.962;2023-06-22T12:47:55;4.70;;;1.30;;
77018;SDS011;66044;53.142;17.962;2023-06-22T12:50:21;5.60;;;1.40;;
77018;SDS011;66044;53.142;17.962;2023-06-22T12:52:48;5.00;;;1.60;;
77018;SDS011;66044;53.142;17.962;2023-06-22T12:55:14;5.20;;;1.40;;
77018;SDS011;66044;53.142;17.962;2023-06-22T12:57:41;4.80;;;1.40;;
77018;SDS011;66044;53.142;17.962;2023-06-22T13:00:10;6.10;;;1.60;;
77018;SDS011;66044;53.142;17.962;2023-06-22T13:02:37;5.30;;;1.40;;
77018;SDS011;66044;53.142;17.962;2023-06-22T13:05:04;4.90;;;1.50;;
77018;SDS011;66044;53.142;17.962;2023-06-22T13:07:31;5.80;;;1.70;;
77018;SDS011;66044;53.142;17.962;2023-06-22T13:09:58;5.40;;;1.50;;
77018;SDS011;66044;53.142;17.962;2023-06-22T13:12:24;5.20;;;1.30;;
77018;SDS011;66044;53.142;17.962;2023-06-22T13:14:50;5.60;;;1.70;;
77018;SDS011;66044;53.142;17.962;2023-06-22T13:17:17;5.70;;;1.30;;
77018;SDS011;66044;53.142;17.962;2023-06-22T13:19:43;4.70;;;1.20;;
77018;SDS011;66044;53.142;17.962;2023-06-22T13:24:55;5.30;;;1.40;;
77018;SDS011;66044;53.142;17.962;2023-06-22T13:27:27;5.30;;;1.30;;
77018;SDS011;66044;53.142;17.962;2023-06-22T13:29:54;6.10;;;1.50;;
77018;SDS011;66044;53.142;17.962;2023-06-22T13:32:20;5.40;;;1.80;;
77018;SDS011;66044;53.142;17.962;2023-06-22T13:34:47;4.70;;;1.40;;
77018;SDS011;66044;53.142;17.962;2023-06-22T13:37:13;5.30;;;1.60;;
77018;SDS011;66044;53.142;17.962;2023-06-22T13:39:40;6.70;;;1.50;;
77018;SDS011;66044;53.142;17.962;2023-06-22T13:42:07;4.40;;;1.40;;
77018;SDS011;66044;53.142;17.962;2023-06-22T13:44:34;4.90;;;1.60;;
77018;SDS011;66044;53.142;17.962;2023-06-22T13:47:00;5.30;;;1.40;;
77018;SDS011;66044;53.142;17.962;2023-06-22T13:49:27;4.60;;;1.30;;
77018;SDS011;66044;53.142;17.962;2023-06-22T13:51:55;5.30;;;1.70;;
77018;SDS011;66044;53.142;17.962;2023-06-22T13:54:21;5.90;;;1.70;;
77018;SDS011;66044;53.142;17.962;2023-06-22T13:56:48;8.00;;;1.70;;
77018;SDS011;66044;53.142;17.962;2023-06-22T13:59:14;5.30;;;1.60;;
77018;SDS011;66044;53.142;17.962;2023-06-22T14:01:41;4.60;;;1.50;;
77018;SDS011;66044;53.142;17.962;2023-06-22T14:04:09;4.70;;;1.30;;
77018;SDS011;66044;53.142;17.962;2023-06-22T14:06:36;5.70;;;1.50;;
77018;SDS011;66044;53.142;17.962;2023-06-22T14:09:02;5.80;;;2.00;;
77018;SDS011;66044;53.142;17.962;2023-06-22T14:11:29;4.90;;;1.60;;
77018;SDS011;66044;53.142;17.962;2023-06-22T14:13:55;5.20;;;1.60;;
77018;SDS011;66044;53.142;17.962;2023-06-22T14:16:21;5.50;;;1.60;;
77018;SDS011;66044;53.142;17.962;2023-06-22T14:18:48;4.60;;;1.30;;
77018;SDS011;66044;53.142;17.962;2023-06-22T14:21:14;5.60;;;1.80;;
77018;SDS011;66044;53.142;17.962;2023-06-22T14:23:41;5.20;;;1.70;;
77018;SDS011;66044;53.142;17.962;2023-06-22T14:26:07;5.10;;;1.50;;
77018;SDS011;66044;53.142;17.962;2023-06-22T14:28:34;6.20;;;1.70;;
77018;SDS011;66044;53.142;17.962;2023-06-22T14:31:00;6.20;;;1.70;;
77018;SDS011;66044;53.142;17.962;2023-06-22T14:33:27;6.60;;;1.40;;
77018;SDS011;66044;53.142;17.962;2023-06-22T14:35:53;4.90;;;1.70;;
77018;SDS011;66044;53.142;17.962;2023-06-22T14:38:20;4.90;;;1.60;;
77018;SDS011;66044;53.142;17.962;2023-06-22T14:40:47;5.50;;;1.50;;
77018;SDS011;66044;53.142;17.962;2023-06-22T14:43:13;5.30;;;1.30;;
77018;SDS011;66044;53.142;17.962;2023-06-22T14:45:40;5.90;;;1.90;;
77018;SDS011;66044;53.142;17.962;2023-06-22T14:48:07;5.10;;;1.50;;
77018;SDS011;66044;53.142;17.962;2023-06-22T14:50:33;5.00;;;1.50;;